sensor_id;sensor_type;location;lat;lon;timestamp;P1;durP1;ratioP1;P2;durP2;ratioP2
41927;SDS011;27616;51.420;6.788;2022-11-20T00:00:51;32.73;;;15.80;;
41927;SDS011;27616;51.420;6.788;2022-11-20T00:03:17;32.17;;;16.50;;
41927;SDS011;27616;51.420;6.788;2022-11-20T00:05:42;35.57;;;17.07;;
41927;SDS011;27616;51.420;6.788;2022-11-20T00:08:09;30.73;;;15.23;;
41927;SDS011;27616;51.420;6.788;2022-11-20T00:10:38;33.87;;;16.67;;
41927;SDS011;27616;51.420;6.788;2022-11-20T00:15:30;34.77;;;16.57;;
41927;SDS011;27616;51.420;6.788;2022-11-20T00:17:56;33.30;;;16.23;;
41927;SDS011;27616;51.420;6.788;2022-11-20T00:20:22;32.53;;;16.27;;
41927;SDS011;27616;51.420;6.788;2022-11-20T00:22:47;36.13;;;17.50;;
41927;SDS011;27616;51.420;6.788;2022-11-20T00:25:14;33.43;;;16.90;;
41927;SDS011;27616;51.420;6.788;2022-11-20T00:27:40;38.50;;;17.30;;
41927;SDS011;27616;51.420;6.788;2022-11-20T00:30:06;33.80;;;16.93;;
41927;SDS011;27616;51.420;6.788;2022-11-20T00:32:32;30.97;;;16.77;;
41927;SDS011;27616;51.420;6.788;2022-11-20T00:34:58;33.17;;;17.00;;
41927;SDS011;27616;51.420;6.788;2022-11-20T00:37:23;35.43;;;16.97;;
41927;SDS011;27616;51.420;6.788;2022-11-20T00:39:49;36.97;;;17.67;;
41927;SDS011;27616;51.420;6.788;2022-11-20T00:42:15;34.07;;;17.77;;
41927;SDS011;27616;51.420;6.788;2022-11-20T00:44:40;38.07;;;18.33;;
41927;SDS011;27616;51.420;6.788;2022-11-20T00:47:06;35.20;;;17.80;;
41927;SDS011;27616;51.420;6.788;2022-11-20T00:49:32;33.73;;;17.83;;
41927;SDS011;27616;51.420;6.788;2022-11-20T00:51:58;34.80;;;18.07;;
41927;SDS011;27616;51.420;6.788;2022-11-20T00:54:23;37.27;;;17.93;;
41927;SDS011;27616;51.420;6.788;2022-11-20T00:56:49;34.83;;;17.10;;
41927;SDS011;27616;51.420;6.788;2022-11-20T00:59:15;34.70;;;17.63;;
41927;SDS011;27616;51.420;6.788;2022-11-20T01:01:40;34.37;;;17.90;;
41927;SDS011;27616;51.420;6.788;2022-11-20T01:04:06;36.53;;;18.33;;
41927;SDS011;27616;51.420;6.788;2022-11-20T01:06:32;31.23;;;17.27;;
41927;SDS011;27616;51.420;6.788;2022-11-20T01:09:00;32.90;;;17.50;;
41927;SDS011;27616;51.420;6.788;2022-11-20T01:11:32;37.30;;;18.58;;
41927;SDS011;27616;51.420;6.788;2022-11-20T01:14:00;34.50;;;17.13;;
41927;SDS011;27616;51.420;6.788;2022-11-20T01:16:28;35.13;;;17.70;;
41927;SDS011;27616;51.420;6.788;2022-11-20T01:18:59;36.37;;;17.67;;
41927;SDS011;27616;51.420;6.788;2022-11-20T01:21:30;37.00;;;17.70;;
41927;SDS011;27616;51.420;6.788;2022-11-20T01:23:57;35.93;;;18.23;;
41927;SDS011;27616;51.420;6.788;2022-11-20T01:26:24;36.77;;;18.53;;
41927;SDS011;27616;51.420;6.788;2022-11-20T01:28:53;37.50;;;18.45;;
41927;SDS011;27616;51.420;6.788;2022-11-20T01:31:20;37.57;;;19.20;;
41927;SDS011;27616;51.420;6.788;2022-11-20T01:33:57;37.70;;;18.77;;
41927;SDS011;27616;51.420;6.788;2022-11-20T01:36:25;39.87;;;19.70;;
41927;SDS011;27616;51.420;6.788;2022-11-20T01:38:54;36.50;;;18.25;;
41927;SDS011;27616;51.420;6.788;2022-11-20T01:41:21;35.70;;;17.83;;
41927;SDS011;27616;51.420;6.788;2022-11-20T01:44:08;39.80;;;19.13;;
41927;SDS011;27616;51.420;6.788;2022-11-20T01:46:37;37.47;;;19.10;;
41927;SDS011;27616;51.420;6.788;2022-11-20T01:51:50;36.37;;;18.43;;
41927;SDS011;27616;51.420;6.788;2022-11-20T01:54:23;32.83;;;17.57;;
41927;SDS011;27616;51.420;6.788;2022-11-20T01:56:56;44.93;;;19.03;;
41927;SDS011;27616;51.420;6.788;2022-11-20T01:59:24;38.40;;;18.47;;
41927;SDS011;27616;51.420;6.788;2022-11-20T02:01:52;35.13;;;17.37;;
41927;SDS011;27616;51.420;6.788;2022-11-20T02:04:18;38.80;;;19.10;;
41927;SDS011;27616;51.420;6.788;2022-11-20T02:06:48;35.53;;;17.90;;
41927;SDS011;27616;51.420;6.788;2022-11-20T02:09:25;36.07;;;18.97;;
41927;SDS011;27616;51.420;6.788;2022-11-20T02:11:51;35.80;;;18.87;;
41927;SDS011;27616;51.420;6.788;2022-11-20T02:14:17;35.47;;;18.20;;
41927;SDS011;27616;51.420;6.788;2022-11-20T02:16:45;36.83;;;18.10;;
41927;SDS011;27616;51.420;6.788;2022-11-20T02:19:19;34.80;;;18.00;;
41927;SDS011;27616;51.420;6.788;2022-11-20T02:22:24;37.47;;;18.33;;
41927;SDS011;27616;51.420;6.788;2022-11-20T02:24:49;36.10;;;18.47;;
41927;SDS011;27616;51.420;6.788;2022-11-20T02:27:16;34.90;;;18.93;;
41927;SDS011;27616;51.420;6.788;2022-11-20T02:29:53;39.47;;;18.40;;
41927;SDS011;27616;51.420;6.788;2022-11-20T02:34:52;34.47;;;18.13;;
41927;SDS011;27616;51.420;6.788;2022-11-20T02:37:18;38.67;;;18.40;;
41927;SDS011;27616;51.420;6.788;2022-11-20T02:39:46;37.30;;;18.93;;
41927;SDS011;27616;51.420;6.788;2022-11-20T02:42:13;36.50;;;17.67;;
41927;SDS011;27616;51.420;6.788;2022-11-20T02:44:39;37.33;;;17.97;;
41927;SDS011;27616;51.420;6.788;2022-11-20T02:47:04;36.57;;;17.27;;
41927;SDS011;27616;51.420;6.788;2022-11-20T02:49:30;38.60;;;18.27;;
41927;SDS011;27616;51.420;6.788;2022-11-20T02:51:56;34.77;;;17.80;;
41927;SDS011;27616;51.420;6.788;2022-11-20T02:54:22;36.50;;;18.93;;
41927;SDS011;27616;51.420;6.788;2022-11-20T02:56:48;36.00;;;17.77;;
41927;SDS011;27616;51.420;6.788;2022-11-20T02:59:14;37.23;;;18.30;;
41927;SDS011;27616;51.420;6.788;2022-11-20T03:01:40;35.97;;;18.60;;
41927;SDS011;27616;51.420;6.788;2022-11-20T03:04:05;35.53;;;18.37;;
41927;SDS011;27616;51.420;6.788;2022-11-20T03:06:31;35.20;;;18.03;;
41927;SDS011;27616;51.420;6.788;2022-11-20T03:08:57;31.10;;;16.90;;
41927;SDS011;27616;51.420;6.788;2022-11-20T03:11:23;38.77;;;18.57;;
41927;SDS011;27616;51.420;6.788;2022-11-20T03:13:49;36.57;;;17.93;;
41927;SDS011;27616;51.420;6.788;2022-11-20T03:16:16;37.20;;;18.47;;
41927;SDS011;27616;51.420;6.788;2022-11-20T03:18:46;36.83;;;18.40;;
41927;SDS011;27616;51.420;6.788;2022-11-20T03:21:12;39.30;;;18.83;;
41927;SDS011;27616;51.420;6.788;2022-11-20T03:23:39;34.37;;;18.17;;
41927;SDS011;27616;51.420;6.788;2022-11-20T03:26:10;33.10;;;17.70;;
41927;SDS011;27616;51.420;6.788;2022-11-20T03:28:36;33.10;;;17.27;;
41927;SDS011;27616;51.420;6.788;2022-11-20T03:31:09;33.50;;;17.53;;
41927;SDS011;27616;51.420;6.788;2022-11-20T03:33:36;35.00;;;18.47;;
41927;SDS011;27616;51.420;6.788;2022-11-20T03:36:04;31.30;;;17.20;;
41927;SDS011;27616;51.420;6.788;2022-11-20T03:38:31;38.00;;;18.23;;
41927;SDS011;27616;51.420;6.788;2022-11-20T03:40:58;33.30;;;16.83;;
41927;SDS011;27616;51.420;6.788;2022-11-20T03:43:25;36.33;;;18.27;;
41927;SDS011;27616;51.420;6.788;2022-11-20T03:45:51;37.07;;;17.73;;
41927;SDS011;27616;51.420;6.788;2022-11-20T03:48:17;32.10;;;17.90;;
41927;SDS011;27616;51.420;6.788;2022-11-20T03:50:43;32.37;;;17.67;;
41927;SDS011;27616;51.420;6.788;2022-11-20T03:53:08;37.83;;;18.53;;
41927;SDS011;27616;51.420;6.788;2022-11-20T03:55:34;33.20;;;17.10;;
41927;SDS011;27616;51.420;6.788;2022-11-20T03:58:00;35.20;;;18.40;;
41927;SDS011;27616;51.420;6.788;2022-11-20T04:00:26;32.83;;;17.63;;
41927;SDS011;27616;51.420;6.788;2022-11-20T04:02:52;35.07;;;17.97;;
41927;SDS011;27616;51.420;6.788;2022-11-20T04:05:17;35.73;;;18.50;;
41927;SDS011;27616;51.420;6.788;2022-11-20T04:07:43;31.97;;;17.13;;
41927;SDS011;27616;51.420;6.788;2022-11-20T04:10:09;34.20;;;17.93;;
41927;SDS011;27616;51.420;6.788;2022-11-20T04:12:34;33.90;;;18.50;;
41927;SDS011;27616;51.420;6.788;2022-11-20T04:15:00;33.57;;;18.00;;
41927;SDS011;27616;51.420;6.788;2022-11-20T04:17:26;30.57;;;17.20;;
41927;SDS011;27616;51.420;6.788;2022-11-20T04:19:51;39.27;;;18.83;;
41927;SDS011;27616;51.420;6.788;2022-11-20T04:22:17;34.30;;;17.53;;
41927;SDS011;27616;51.420;6.788;2022-11-20T04:24:43;33.07;;;16.97;;
41927;SDS011;27616;51.420;6.788;2022-11-20T04:27:08;33.93;;;18.47;;
41927;SDS011;27616;51.420;6.788;2022-11-20T04:29:34;33.60;;;18.47;;
41927;SDS011;27616;51.420;6.788;2022-11-20T04:32:00;32.80;;;18.10;;
41927;SDS011;27616;51.420;6.788;2022-11-20T04:34:25;37.00;;;19.43;;
41927;SDS011;27616;51.420;6.788;2022-11-20T04:36:51;35.47;;;18.20;;
41927;SDS011;27616;51.420;6.788;2022-11-20T04:39:17;33.90;;;18.07;;
41927;SDS011;27616;51.420;6.788;2022-11-20T04:41:42;34.20;;;18.40;;
41927;SDS011;27616;51.420;6.788;2022-11-20T04:44:08;33.30;;;17.77;;
41927;SDS011;27616;51.420;6.788;2022-11-20T04:46:35;30.40;;;17.40;;
41927;SDS011;27616;51.420;6.788;2022-11-20T04:49:03;33.90;;;18.50;;
41927;SDS011;27616;51.420;6.788;2022-11-20T04:51:29;33.43;;;18.23;;
41927;SDS011;27616;51.420;6.788;2022-11-20T04:53:55;32.17;;;17.50;;
41927;SDS011;27616;51.420;6.788;2022-11-20T04:56:21;35.27;;;17.53;;
41927;SDS011;27616;51.420;6.788;2022-11-20T04:58:47;36.70;;;18.63;;
41927;SDS011;27616;51.420;6.788;2022-11-20T05:01:14;32.70;;;17.97;;
41927;SDS011;27616;51.420;6.788;2022-11-20T05:03:41;33.53;;;17.93;;
41927;SDS011;27616;51.420;6.788;2022-11-20T05:06:09;33.37;;;18.73;;
41927;SDS011;27616;51.420;6.788;2022-11-20T05:08:35;33.67;;;17.93;;
41927;SDS011;27616;51.420;6.788;2022-11-20T05:11:03;34.57;;;17.70;;
41927;SDS011;27616;51.420;6.788;2022-11-20T05:13:36;31.73;;;17.17;;
41927;SDS011;27616;51.420;6.788;2022-11-20T05:16:03;32.23;;;18.30;;
41927;SDS011;27616;51.420;6.788;2022-11-20T05:18:30;35.43;;;18.53;;
41927;SDS011;27616;51.420;6.788;2022-11-20T05:20:56;33.67;;;18.30;;
41927;SDS011;27616;51.420;6.788;2022-11-20T05:23:23;33.40;;;18.93;;
41927;SDS011;27616;51.420;6.788;2022-11-20T05:25:51;39.30;;;21.30;;
41927;SDS011;27616;51.420;6.788;2022-11-20T05:28:18;38.42;;;20.52;;
41927;SDS011;27616;51.420;6.788;2022-11-20T05:30:44;38.67;;;21.77;;
41927;SDS011;27616;51.420;6.788;2022-11-20T05:33:10;36.17;;;20.57;;
41927;SDS011;27616;51.420;6.788;2022-11-20T05:35:35;38.37;;;21.97;;
41927;SDS011;27616;51.420;6.788;2022-11-20T05:38:01;39.47;;;21.10;;
41927;SDS011;27616;51.420;6.788;2022-11-20T05:40:27;41.43;;;22.47;;
41927;SDS011;27616;51.420;6.788;2022-11-20T05:42:52;37.97;;;21.90;;
41927;SDS011;27616;51.420;6.788;2022-11-20T05:45:18;38.27;;;22.07;;
41927;SDS011;27616;51.420;6.788;2022-11-20T05:47:44;43.60;;;22.83;;
41927;SDS011;27616;51.420;6.788;2022-11-20T05:50:09;43.17;;;24.03;;
41927;SDS011;27616;51.420;6.788;2022-11-20T05:52:35;43.00;;;24.30;;
41927;SDS011;27616;51.420;6.788;2022-11-20T05:55:01;41.80;;;24.63;;
41927;SDS011;27616;51.420;6.788;2022-11-20T05:57:27;43.57;;;24.27;;
41927;SDS011;27616;51.420;6.788;2022-11-20T05:59:52;46.23;;;24.13;;
41927;SDS011;27616;51.420;6.788;2022-11-20T06:02:18;45.57;;;24.47;;
41927;SDS011;27616;51.420;6.788;2022-11-20T06:04:44;43.57;;;24.37;;
41927;SDS011;27616;51.420;6.788;2022-11-20T06:07:09;45.13;;;24.70;;
41927;SDS011;27616;51.420;6.788;2022-11-20T06:09:35;42.67;;;23.47;;
41927;SDS011;27616;51.420;6.788;2022-11-20T06:12:01;41.53;;;23.83;;
41927;SDS011;27616;51.420;6.788;2022-11-20T06:14:27;42.17;;;23.77;;
41927;SDS011;27616;51.420;6.788;2022-11-20T06:16:52;39.40;;;22.67;;
41927;SDS011;27616;51.420;6.788;2022-11-20T06:19:18;45.60;;;24.50;;
41927;SDS011;27616;51.420;6.788;2022-11-20T06:21:44;45.90;;;24.30;;
41927;SDS011;27616;51.420;6.788;2022-11-20T06:24:10;45.60;;;25.17;;
41927;SDS011;27616;51.420;6.788;2022-11-20T06:26:36;46.17;;;23.57;;
41927;SDS011;27616;51.420;6.788;2022-11-20T06:29:02;44.53;;;24.23;;
41927;SDS011;27616;51.420;6.788;2022-11-20T06:31:28;44.47;;;23.73;;
41927;SDS011;27616;51.420;6.788;2022-11-20T06:33:54;42.80;;;22.47;;
41927;SDS011;27616;51.420;6.788;2022-11-20T06:36:20;37.87;;;22.33;;
41927;SDS011;27616;51.420;6.788;2022-11-20T06:38:47;43.23;;;22.50;;
41927;SDS011;27616;51.420;6.788;2022-11-20T06:41:14;43.50;;;23.63;;
41927;SDS011;27616;51.420;6.788;2022-11-20T06:43:41;41.50;;;22.67;;
41927;SDS011;27616;51.420;6.788;2022-11-20T06:46:08;39.53;;;21.97;;
41927;SDS011;27616;51.420;6.788;2022-11-20T06:48:35;42.67;;;24.50;;
41927;SDS011;27616;51.420;6.788;2022-11-20T06:51:02;42.57;;;23.40;;
41927;SDS011;27616;51.420;6.788;2022-11-20T06:53:29;40.30;;;22.73;;
41927;SDS011;27616;51.420;6.788;2022-11-20T06:55:55;44.67;;;23.47;;
41927;SDS011;27616;51.420;6.788;2022-11-20T06:58:22;42.77;;;23.83;;
41927;SDS011;27616;51.420;6.788;2022-11-20T07:00:51;44.07;;;23.70;;
41927;SDS011;27616;51.420;6.788;2022-11-20T07:03:16;41.67;;;23.57;;
41927;SDS011;27616;51.420;6.788;2022-11-20T07:05:42;39.60;;;22.07;;
41927;SDS011;27616;51.420;6.788;2022-11-20T07:08:08;38.83;;;21.13;;
41927;SDS011;27616;51.420;6.788;2022-11-20T07:10:34;40.07;;;21.80;;
41927;SDS011;27616;51.420;6.788;2022-11-20T07:13:00;38.37;;;20.67;;
41927;SDS011;27616;51.420;6.788;2022-11-20T07:15:26;43.77;;;22.50;;
41927;SDS011;27616;51.420;6.788;2022-11-20T07:17:52;37.90;;;20.43;;
41927;SDS011;27616;51.420;6.788;2022-11-20T07:20:18;42.10;;;22.83;;
41927;SDS011;27616;51.420;6.788;2022-11-20T07:22:43;43.63;;;21.90;;
41927;SDS011;27616;51.420;6.788;2022-11-20T07:25:09;41.43;;;22.67;;
41927;SDS011;27616;51.420;6.788;2022-11-20T07:27:35;38.87;;;21.17;;
41927;SDS011;27616;51.420;6.788;2022-11-20T07:30:02;44.63;;;22.73;;
41927;SDS011;27616;51.420;6.788;2022-11-20T07:32:29;43.63;;;22.57;;
41927;SDS011;27616;51.420;6.788;2022-11-20T07:34:54;41.23;;;20.53;;
41927;SDS011;27616;51.420;6.788;2022-11-20T07:37:20;40.27;;;21.10;;
41927;SDS011;27616;51.420;6.788;2022-11-20T07:39:46;43.40;;;21.77;;
41927;SDS011;27616;51.420;6.788;2022-11-20T07:42:12;39.60;;;21.27;;
41927;SDS011;27616;51.420;6.788;2022-11-20T07:44:38;40.50;;;22.17;;
41927;SDS011;27616;51.420;6.788;2022-11-20T07:47:04;37.63;;;20.80;;
41927;SDS011;27616;51.420;6.788;2022-11-20T07:49:30;45.63;;;21.10;;
41927;SDS011;27616;51.420;6.788;2022-11-20T07:51:56;38.97;;;21.37;;
41927;SDS011;27616;51.420;6.788;2022-11-20T07:54:22;43.37;;;20.90;;
41927;SDS011;27616;51.420;6.788;2022-11-20T07:56:48;40.33;;;19.97;;
41927;SDS011;27616;51.420;6.788;2022-11-20T07:59:14;35.40;;;19.90;;
41927;SDS011;27616;51.420;6.788;2022-11-20T08:01:41;38.53;;;21.43;;
41927;SDS011;27616;51.420;6.788;2022-11-20T08:04:08;39.53;;;20.87;;
41927;SDS011;27616;51.420;6.788;2022-11-20T08:06:35;39.43;;;20.70;;
41927;SDS011;27616;51.420;6.788;2022-11-20T08:09:01;37.50;;;20.57;;
41927;SDS011;27616;51.420;6.788;2022-11-20T08:11:27;35.10;;;19.20;;
41927;SDS011;27616;51.420;6.788;2022-11-20T08:14:12;44.47;;;26.07;;
41927;SDS011;27616;51.420;6.788;2022-11-20T08:16:38;37.40;;;21.33;;
41927;SDS011;27616;51.420;6.788;2022-11-20T08:19:04;43.60;;;23.03;;
41927;SDS011;27616;51.420;6.788;2022-11-20T08:21:30;36.83;;;20.30;;
41927;SDS011;27616;51.420;6.788;2022-11-20T08:23:57;36.17;;;19.90;;
41927;SDS011;27616;51.420;6.788;2022-11-20T08:26:23;41.20;;;20.93;;
41927;SDS011;27616;51.420;6.788;2022-11-20T08:28:52;36.67;;;20.00;;
41927;SDS011;27616;51.420;6.788;2022-11-20T08:31:19;35.07;;;19.77;;
41927;SDS011;27616;51.420;6.788;2022-11-20T08:33:45;38.17;;;19.90;;
41927;SDS011;27616;51.420;6.788;2022-11-20T08:36:11;35.07;;;19.50;;
41927;SDS011;27616;51.420;6.788;2022-11-20T08:38:37;37.20;;;20.90;;
41927;SDS011;27616;51.420;6.788;2022-11-20T08:41:03;38.30;;;20.97;;
41927;SDS011;27616;51.420;6.788;2022-11-20T08:43:48;33.87;;;19.80;;
41927;SDS011;27616;51.420;6.788;2022-11-20T08:46:16;40.73;;;21.37;;
41927;SDS011;27616;51.420;6.788;2022-11-20T08:48:42;37.93;;;20.03;;
41927;SDS011;27616;51.420;6.788;2022-11-20T08:51:08;35.87;;;20.70;;
41927;SDS011;27616;51.420;6.788;2022-11-20T08:53:35;41.47;;;22.63;;
41927;SDS011;27616;51.420;6.788;2022-11-20T08:56:00;38.27;;;21.17;;
41927;SDS011;27616;51.420;6.788;2022-11-20T08:58:26;42.23;;;21.47;;
41927;SDS011;27616;51.420;6.788;2022-11-20T09:00:52;39.20;;;20.17;;
41927;SDS011;27616;51.420;6.788;2022-11-20T09:03:18;35.63;;;19.47;;
41927;SDS011;27616;51.420;6.788;2022-11-20T09:05:44;32.97;;;19.00;;
41927;SDS011;27616;51.420;6.788;2022-11-20T09:08:10;35.60;;;20.33;;
41927;SDS011;27616;51.420;6.788;2022-11-20T09:10:35;43.87;;;22.83;;
41927;SDS011;27616;51.420;6.788;2022-11-20T09:13:01;36.33;;;19.83;;
41927;SDS011;27616;51.420;6.788;2022-11-20T09:15:27;36.47;;;19.53;;
41927;SDS011;27616;51.420;6.788;2022-11-20T09:17:53;64.80;;;32.30;;
41927;SDS011;27616;51.420;6.788;2022-11-20T09:20:20;46.50;;;24.30;;
41927;SDS011;27616;51.420;6.788;2022-11-20T09:22:46;39.60;;;20.63;;
41927;SDS011;27616;51.420;6.788;2022-11-20T09:25:12;33.83;;;19.43;;
41927;SDS011;27616;51.420;6.788;2022-11-20T09:27:38;34.63;;;19.13;;
41927;SDS011;27616;51.420;6.788;2022-11-20T09:30:04;33.20;;;18.47;;
41927;SDS011;27616;51.420;6.788;2022-11-20T09:32:30;32.97;;;19.13;;
41927;SDS011;27616;51.420;6.788;2022-11-20T09:34:56;31.27;;;18.13;;
41927;SDS011;27616;51.420;6.788;2022-11-20T09:37:22;38.00;;;19.07;;
41927;SDS011;27616;51.420;6.788;2022-11-20T09:39:47;32.23;;;17.60;;
41927;SDS011;27616;51.420;6.788;2022-11-20T09:42:23;27.00;;;16.17;;
41927;SDS011;27616;51.420;6.788;2022-11-20T09:55:37;29.43;;;15.80;;
41927;SDS011;27616;51.420;6.788;2022-11-20T09:58:07;25.93;;;15.07;;
41927;SDS011;27616;51.420;6.788;2022-11-20T10:00:46;25.17;;;15.20;;
41927;SDS011;27616;51.420;6.788;2022-11-20T10:03:14;26.00;;;15.00;;
41927;SDS011;27616;51.420;6.788;2022-11-20T10:05:47;26.57;;;15.60;;
41927;SDS011;27616;51.420;6.788;2022-11-20T10:08:24;32.07;;;17.27;;
41927;SDS011;27616;51.420;6.788;2022-11-20T10:16:34;30.43;;;17.17;;
41927;SDS011;27616;51.420;6.788;2022-11-20T10:27:35;27.93;;;16.73;;
41927;SDS011;27616;51.420;6.788;2022-11-20T10:30:16;27.43;;;15.17;;
41927;SDS011;27616;51.420;6.788;2022-11-20T10:32:52;29.63;;;16.30;;
41927;SDS011;27616;51.420;6.788;2022-11-20T10:35:42;31.57;;;15.43;;
41927;SDS011;27616;51.420;6.788;2022-11-20T10:38:26;26.50;;;14.40;;
41927;SDS011;27616;51.420;6.788;2022-11-20T10:41:03;26.92;;;14.60;;
41927;SDS011;27616;51.420;6.788;2022-11-20T10:43:51;28.13;;;15.10;;
41927;SDS011;27616;51.420;6.788;2022-11-20T10:46:35;24.93;;;14.33;;
41927;SDS011;27616;51.420;6.788;2022-11-20T10:49:15;26.07;;;14.47;;
41927;SDS011;27616;51.420;6.788;2022-11-20T10:52:30;26.40;;;13.77;;
41927;SDS011;27616;51.420;6.788;2022-11-20T10:54:44;27.10;;;13.97;;
41927;SDS011;27616;51.420;6.788;2022-11-20T10:57:25;25.07;;;13.80;;
41927;SDS011;27616;51.420;6.788;2022-11-20T11:00:11;25.33;;;14.40;;
41927;SDS011;27616;51.420;6.788;2022-11-20T11:02:42;25.77;;;14.10;;
41927;SDS011;27616;51.420;6.788;2022-11-20T11:05:10;26.57;;;13.70;;
41927;SDS011;27616;51.420;6.788;2022-11-20T11:07:56;25.07;;;14.37;;
41927;SDS011;27616;51.420;6.788;2022-11-20T11:12:54;25.17;;;13.93;;
41927;SDS011;27616;51.420;6.788;2022-11-20T11:17:51;23.90;;;13.57;;
41927;SDS011;27616;51.420;6.788;2022-11-20T11:20:24;26.43;;;14.37;;
41927;SDS011;27616;51.420;6.788;2022-11-20T11:25:25;25.17;;;14.50;;
41927;SDS011;27616;51.420;6.788;2022-11-20T11:27:53;23.53;;;13.50;;
41927;SDS011;27616;51.420;6.788;2022-11-20T11:30:22;33.10;;;16.05;;
41927;SDS011;27616;51.420;6.788;2022-11-20T11:32:49;38.40;;;21.47;;
41927;SDS011;27616;51.420;6.788;2022-11-20T11:35:19;31.80;;;15.93;;
41927;SDS011;27616;51.420;6.788;2022-11-20T11:37:48;27.63;;;13.50;;
41927;SDS011;27616;51.420;6.788;2022-11-20T11:40:16;27.57;;;14.77;;
41927;SDS011;27616;51.420;6.788;2022-11-20T11:42:52;28.93;;;14.53;;
41927;SDS011;27616;51.420;6.788;2022-11-20T11:45:22;25.33;;;14.03;;
41927;SDS011;27616;51.420;6.788;2022-11-20T11:47:49;26.70;;;14.30;;
41927;SDS011;27616;51.420;6.788;2022-11-20T11:50:18;27.40;;;14.03;;
41927;SDS011;27616;51.420;6.788;2022-11-20T11:55:47;26.57;;;14.33;;
41927;SDS011;27616;51.420;6.788;2022-11-20T12:03:44;26.20;;;12.83;;
41927;SDS011;27616;51.420;6.788;2022-11-20T12:06:34;27.73;;;14.03;;
41927;SDS011;27616;51.420;6.788;2022-11-20T12:09:04;28.90;;;14.27;;
41927;SDS011;27616;51.420;6.788;2022-11-20T12:14:14;29.90;;;15.47;;
41927;SDS011;27616;51.420;6.788;2022-11-20T12:16:49;29.17;;;14.40;;
41927;SDS011;27616;51.420;6.788;2022-11-20T12:19:15;27.27;;;14.37;;
41927;SDS011;27616;51.420;6.788;2022-11-20T12:30:22;28.30;;;13.83;;
41927;SDS011;27616;51.420;6.788;2022-11-20T12:40:45;28.03;;;14.77;;
41927;SDS011;27616;51.420;6.788;2022-11-20T12:49:18;31.20;;;14.80;;
41927;SDS011;27616;51.420;6.788;2022-11-20T12:57:28;27.58;;;14.00;;
41927;SDS011;27616;51.420;6.788;2022-11-20T13:02:44;28.90;;;14.50;;
41927;SDS011;27616;51.420;6.788;2022-11-20T13:13:36;27.13;;;12.65;;
41927;SDS011;27616;51.420;6.788;2022-11-20T13:19:03;20.07;;;10.00;;
41927;SDS011;27616;51.420;6.788;2022-11-20T13:21:40;27.93;;;14.23;;
41927;SDS011;27616;51.420;6.788;2022-11-20T13:26:38;28.67;;;14.43;;
41927;SDS011;27616;51.420;6.788;2022-11-20T13:29:19;31.07;;;15.73;;
41927;SDS011;27616;51.420;6.788;2022-11-20T13:31:48;27.93;;;14.53;;
41927;SDS011;27616;51.420;6.788;2022-11-20T13:34:22;31.52;;;16.17;;
41927;SDS011;27616;51.420;6.788;2022-11-20T13:36:52;32.90;;;16.53;;
41927;SDS011;27616;51.420;6.788;2022-11-20T13:39:32;33.83;;;17.57;;
41927;SDS011;27616;51.420;6.788;2022-11-20T13:42:00;32.63;;;16.63;;
41927;SDS011;27616;51.420;6.788;2022-11-20T13:44:39;32.73;;;17.13;;
41927;SDS011;27616;51.420;6.788;2022-11-20T13:47:23;34.23;;;17.87;;
41927;SDS011;27616;51.420;6.788;2022-11-20T13:49:50;34.73;;;17.37;;
41927;SDS011;27616;51.420;6.788;2022-11-20T14:02:18;34.83;;;17.83;;
41927;SDS011;27616;51.420;6.788;2022-11-20T14:04:46;32.77;;;16.73;;
41927;SDS011;27616;51.420;6.788;2022-11-20T14:07:15;34.30;;;17.23;;
41927;SDS011;27616;51.420;6.788;2022-11-20T14:09:55;35.80;;;18.13;;
41927;SDS011;27616;51.420;6.788;2022-11-20T14:12:23;34.90;;;17.50;;
41927;SDS011;27616;51.420;6.788;2022-11-20T14:14:53;34.13;;;16.70;;
41927;SDS011;27616;51.420;6.788;2022-11-20T14:17:21;36.47;;;18.07;;
41927;SDS011;27616;51.420;6.788;2022-11-20T14:19:50;35.60;;;17.87;;
41927;SDS011;27616;51.420;6.788;2022-11-20T14:22:19;35.70;;;18.57;;
41927;SDS011;27616;51.420;6.788;2022-11-20T14:25:01;39.17;;;18.83;;
41927;SDS011;27616;51.420;6.788;2022-11-20T14:27:39;39.27;;;19.17;;
41927;SDS011;27616;51.420;6.788;2022-11-20T14:30:16;36.17;;;18.10;;
41927;SDS011;27616;51.420;6.788;2022-11-20T14:32:46;41.80;;;18.07;;
41927;SDS011;27616;51.420;6.788;2022-11-20T14:35:17;38.17;;;18.15;;
41927;SDS011;27616;51.420;6.788;2022-11-20T14:37:50;38.90;;;19.33;;
41927;SDS011;27616;51.420;6.788;2022-11-20T14:40:33;37.53;;;18.50;;
41927;SDS011;27616;51.420;6.788;2022-11-20T14:43:01;37.43;;;19.30;;
41927;SDS011;27616;51.420;6.788;2022-11-20T14:45:29;38.65;;;19.42;;
41927;SDS011;27616;51.420;6.788;2022-11-20T14:47:56;35.47;;;18.20;;
41927;SDS011;27616;51.420;6.788;2022-11-20T14:50:25;38.08;;;18.73;;
41927;SDS011;27616;51.420;6.788;2022-11-20T14:52:53;38.03;;;18.90;;
41927;SDS011;27616;51.420;6.788;2022-11-20T14:55:31;40.73;;;20.13;;
41927;SDS011;27616;51.420;6.788;2022-11-20T14:58:04;40.53;;;19.43;;
41927;SDS011;27616;51.420;6.788;2022-11-20T15:00:32;38.07;;;19.13;;
41927;SDS011;27616;51.420;6.788;2022-11-20T15:02:59;40.37;;;20.07;;
41927;SDS011;27616;51.420;6.788;2022-11-20T15:05:26;37.43;;;19.03;;
41927;SDS011;27616;51.420;6.788;2022-11-20T15:08:11;39.67;;;19.90;;
41927;SDS011;27616;51.420;6.788;2022-11-20T15:10:38;45.60;;;20.17;;
41927;SDS011;27616;51.420;6.788;2022-11-20T15:13:11;48.57;;;21.47;;
41927;SDS011;27616;51.420;6.788;2022-11-20T15:18:13;45.90;;;20.80;;
41927;SDS011;27616;51.420;6.788;2022-11-20T15:20:41;44.38;;;20.65;;
41927;SDS011;27616;51.420;6.788;2022-11-20T15:23:12;46.83;;;21.30;;
41927;SDS011;27616;51.420;6.788;2022-11-20T15:25:39;44.27;;;20.97;;
41927;SDS011;27616;51.420;6.788;2022-11-20T15:28:12;42.93;;;20.23;;
41927;SDS011;27616;51.420;6.788;2022-11-20T15:30:42;46.23;;;21.13;;
41927;SDS011;27616;51.420;6.788;2022-11-20T15:33:08;48.23;;;22.03;;
41927;SDS011;27616;51.420;6.788;2022-11-20T15:35:34;47.77;;;22.27;;
41927;SDS011;27616;51.420;6.788;2022-11-20T15:38:00;42.87;;;21.57;;
41927;SDS011;27616;51.420;6.788;2022-11-20T15:40:26;50.60;;;23.60;;
41927;SDS011;27616;51.420;6.788;2022-11-20T15:42:51;48.93;;;21.67;;
41927;SDS011;27616;51.420;6.788;2022-11-20T15:45:40;44.38;;;20.20;;
41927;SDS011;27616;51.420;6.788;2022-11-20T15:51:23;44.75;;;21.02;;
41927;SDS011;27616;51.420;6.788;2022-11-20T15:53:37;48.40;;;21.33;;
41927;SDS011;27616;51.420;6.788;2022-11-20T15:56:05;48.93;;;22.20;;
41927;SDS011;27616;51.420;6.788;2022-11-20T15:58:31;45.67;;;20.97;;
41927;SDS011;27616;51.420;6.788;2022-11-20T16:00:57;45.77;;;22.33;;
41927;SDS011;27616;51.420;6.788;2022-11-20T16:03:23;49.47;;;22.13;;
41927;SDS011;27616;51.420;6.788;2022-11-20T16:05:49;50.57;;;22.37;;
41927;SDS011;27616;51.420;6.788;2022-11-20T16:08:14;48.90;;;23.00;;
41927;SDS011;27616;51.420;6.788;2022-11-20T16:10:40;58.87;;;24.80;;
41927;SDS011;27616;51.420;6.788;2022-11-20T16:13:11;59.03;;;25.83;;
41927;SDS011;27616;51.420;6.788;2022-11-20T16:15:59;55.80;;;23.37;;
41927;SDS011;27616;51.420;6.788;2022-11-20T16:18:26;54.75;;;24.83;;
41927;SDS011;27616;51.420;6.788;2022-11-20T16:20:53;61.40;;;25.73;;